Time;durP1;ratioP1;P1;durP2;ratioP2;P2;SDS_P1;SDS_P2;PMS_P1;PMS_P2;Temp;Humidity;BMP_temperature;BMP_pressure;BME280_temperature;BME280_humidity;BME280_pressure;Samples;Min_cycle;Max_cycle;Signal;HPM_P1;HPM_P2
2023/08/21 00:01:47;;;;;;;8.00;5.22;;;;;;;;;;5059659;28;20468;-78
2023/08/21 00:04:13;;;;;;;8.13;4.65;;;;;;;;;;5059246;28;20029;-78
2023/08/21 00:06:39;;;;;;;8.02;5.35;;;;;;;;;;5058531;28;20039;-77
2023/08/21 00:09:05;;;;;;;7.78;5.30;;;;;;;;;;5058357;28;20025;-77
2023/08/21 00:11:31;;;;;;;5.60;4.35;;;;;;;;;;5059008;28;20082;-78
2023/08/21 00:13:57;;;;;;;6.60;5.07;;;;;;;;;;5059530;28;20029;-78
2023/08/21 00:16:23;;;;;;;7.70;5.18;;;;;;;;;;5057563;28;20025;-77
2023/08/21 00:18:49;;;;;;;8.18;5.32;;;;;;;;;;5057813;28;20555;-77
2023/08/21 00:21:15;;;;;;;7.57;4.45;;;;;;;;;;5057155;28;20037;-78
2023/08/21 00:23:41;;;;;;;8.27;4.45;;;;;;;;;;5057701;28;20622;-77
2023/08/21 00:26:07;;;;;;;6.72;3.90;;;;;;;;;;5057261;28;20029;-78
2023/08/21 00:28:34;;;;;;;5.80;3.38;;;;;;;;;;5057013;28;20025;-77
2023/08/21 00:31:04;;;;;;;10.40;4.38;;;;;;;;;;5055370;28;20083;-78
2023/08/21 00:33:33;;;;;;;6.22;4.03;;;;;;;;;;5054913;28;20424;-78
2023/08/21 00:35:59;;;;;;;6.80;3.83;;;;;;;;;;5056155;28;20031;-77
2023/08/21 00:38:26;;;;;;;7.45;3.72;;;;;;;;;;5055940;28;20055;-77
2023/08/21 00:40:52;;;;;;;6.93;3.53;;;;;;;;;;5054195;28;20067;-77
2023/08/21 00:43:19;;;;;;;6.20;3.92;;;;;;;;;;5055456;28;20456;-77
2023/08/21 00:45:45;;;;;;;6.88;4.00;;;;;;;;;;5055299;28;20048;-77
2023/08/21 00:48:12;;;;;;;8.52;4.38;;;;;;;;;;5055579;28;20573;-77
2023/08/21 00:50:38;;;;;;;10.55;5.60;;;;;;;;;;5055529;28;20056;-77
2023/08/21 00:53:05;;;;;;;7.70;5.13;;;;;;;;;;5055029;28;20025;-77
2023/08/21 00:55:31;;;;;;;11.57;5.60;;;;;;;;;;5055126;28;20120;-77
2023/08/21 00:57:58;;;;;;;12.40;5.05;;;;;;;;;;5055006;28;20029;-77
2023/08/21 01:00:25;;;;;;;9.32;4.40;;;;;;;;;;5054481;28;20025;-77
2023/08/21 01:02:51;;;;;;;9.27;4.80;;;;;;;;;;5054665;28;20029;-77
2023/08/21 01:05:22;;;;;;;6.70;3.85;;;;;;;;;;5053158;28;20028;-77
2023/08/21 01:07:54;;;;;;;7.25;4.30;;;;;;;;;;5054273;28;20029;-77
2023/08/21 01:10:23;;;;;;;7.38;4.30;;;;;;;;;;5054343;28;20448;-77
2023/08/21 01:12:49;;;;;;;6.78;3.55;;;;;;;;;;5054292;28;20025;-77
2023/08/21 01:15:15;;;;;;;6.50;4.53;;;;;;;;;;5054706;28;20028;-77
2023/08/21 01:17:41;;;;;;;8.02;5.03;;;;;;;;;;5055094;28;20116;-77
2023/08/21 01:20:09;;;;;;;10.57;4.47;;;;;;;;;;5054633;28;20096;-77
2023/08/21 01:22:45;;;;;;;11.95;4.63;;;;;;;;;;5055056;28;20028;-77
2023/08/21 01:25:11;;;;;;;10.98;4.97;;;;;;;;;;5053922;28;20035;-77
2023/08/21 01:27:39;;;;;;;8.93;5.03;;;;;;;;;;5053853;28;20025;-77
2023/08/21 01:30:06;;;;;;;10.95;4.65;;;;;;;;;;5053734;28;20056;-77
2023/08/21 01:32:35;;;;;;;9.95;4.65;;;;;;;;;;5054374;28;20116;-77
2023/08/21 01:35:01;;;;;;;13.70;4.50;;;;;;;;;;5054331;28;20407;-77
2023/08/21 01:37:28;;;;;;;10.02;4.32;;;;;;;;;;5053435;28;20032;-77
2023/08/21 01:39:54;;;;;;;9.98;4.63;;;;;;;;;;5054185;28;20052;-77
2023/08/21 01:42:20;;;;;;;9.73;4.13;;;;;;;;;;5054365;28;20025;-77
2023/08/21 01:44:46;;;;;;;5.75;4.07;;;;;;;;;;5053063;28;20024;-77
2023/08/21 01:47:13;;;;;;;9.57;4.50;;;;;;;;;;5054066;28;20090;-77
2023/08/21 01:49:39;;;;;;;11.65;4.88;;;;;;;;;;5054089;28;20025;-77
2023/08/21 01:52:05;;;;;;;12.25;4.82;;;;;;;;;;5053889;28;20033;-77
2023/08/21 01:54:31;;;;;;;6.28;3.55;;;;;;;;;;5054035;28;20483;-76
2023/08/21 01:56:57;;;;;;;6.47;3.70;;;;;;;;;;5053425;28;20029;-77
2023/08/21 01:59:23;;;;;;;7.28;3.38;;;;;;;;;;5053390;28;20029;-77
2023/08/21 02:01:49;;;;;;;6.97;3.15;;;;;;;;;;5053409;28;20024;-77
2023/08/21 02:04:15;;;;;;;4.30;2.78;;;;;;;;;;5053439;28;20025;-77
2023/08/21 02:06:43;;;;;;;6.18;3.30;;;;;;;;;;5052390;28;20090;-77
2023/08/21 02:09:09;;;;;;;5.60;3.25;;;;;;;;;;5053543;28;20027;-77
2023/08/21 02:11:35;;;;;;;5.13;3.08;;;;;;;;;;5053755;28;20442;-77
2023/08/21 02:14:02;;;;;;;3.10;2.80;;;;;;;;;;5053588;28;20048;-77
2023/08/21 02:16:28;;;;;;;4.53;2.50;;;;;;;;;;5053412;28;20440;-77
2023/08/21 02:18:54;;;;;;;4.22;2.70;;;;;;;;;;5053121;28;20025;-77
2023/08/21 02:21:20;;;;;;;4.38;2.33;;;;;;;;;;5053339;28;20052;-77
2023/08/21 02:23:48;;;;;;;5.45;3.45;;;;;;;;;;5053002;28;20048;-76
2023/08/21 02:26:14;;;;;;;6.22;2.72;;;;;;;;;;5053274;28;20029;-77
2023/08/21 02:28:40;;;;;;;6.75;3.10;;;;;;;;;;5053228;28;20025;-77
2023/08/21 02:31:09;;;;;;;5.05;3.17;;;;;;;;;;5052933;28;20029;-77
2023/08/21 02:33:35;;;;;;;5.10;3.40;;;;;;;;;;5052862;28;20523;-76
2023/08/21 02:36:02;;;;;;;5.47;2.97;;;;;;;;;;5052445;28;20029;-77
2023/08/21 02:38:29;;;;;;;4.00;2.95;;;;;;;;;;5052760;28;20075;-77
2023/08/21 02:41:09;;;;;;;5.15;3.25;;;;;;;;;;5052154;28;20400;-77
2023/08/21 02:43:35;;;;;;;9.07;3.55;;;;;;;;;;5052734;28;20109;-77
2023/08/21 02:46:01;;;;;;;7.25;3.83;;;;;;;;;;5056530;28;20028;-77
2023/08/21 02:48:27;;;;;;;8.93;3.70;;;;;;;;;;5056562;28;20025;-77
2023/08/21 02:50:53;;;;;;;5.82;3.25;;;;;;;;;;5056759;28;20116;-77
2023/08/21 02:53:19;;;;;;;6.30;3.17;;;;;;;;;;5056681;28;20101;-77
2023/08/21 02:55:45;;;;;;;6.85;3.75;;;;;;;;;;5057517;28;20108;-77
2023/08/21 02:58:11;;;;;;;6.38;3.58;;;;;;;;;;5057170;28;20434;-77
2023/08/21 03:00:37;;;;;;;6.25;3.40;;;;;;;;;;5056874;28;20031;-77
2023/08/21 03:03:04;;;;;;;6.05;3.72;;;;;;;;;;5057332;28;20640;-77
2023/08/21 03:05:30;;;;;;;6.55;3.50;;;;;;;;;;5056848;28;20025;-77
2023/08/21 03:07:57;;;;;;;6.00;3.75;;;;;;;;;;5056780;28;20032;-77
2023/08/21 03:10:23;;;;;;;10.20;4.07;;;;;;;;;;5056611;28;20031;-77
2023/08/21 03:12:49;;;;;;;5.05;3.08;;;;;;;;;;5057174;28;20433;-77
2023/08/21 03:15:15;;;;;;;6.07;3.30;;;;;;;;;;5056684;28;20495;-77
2023/08/21 03:17:41;;;;;;;4.43;3.13;;;;;;;;;;5056244;28;20372;-76
2023/08/21 03:20:08;;;;;;;5.72;3.03;;;;;;;;;;5056546;28;20021;-77
2023/08/21 03:22:34;;;;;;;3.95;2.97;;;;;;;;;;5056550;28;20024;-76
2023/08/21 03:25:00;;;;;;;4.28;2.90;;;;;;;;;;5056451;28;20025;-77
2023/08/21 03:27:26;;;;;;;3.90;2.90;;;;;;;;;;5056041;28;20032;-77
2023/08/21 03:29:52;;;;;;;5.30;2.78;;;;;;;;;;5055867;28;20448;-77
2023/08/21 03:32:18;;;;;;;4.50;2.80;;;;;;;;;;5055655;28;20029;-77
2023/08/21 03:34:44;;;;;;;4.88;3.00;;;;;;;;;;5055676;28;20036;-76
2023/08/21 03:37:11;;;;;;;6.60;3.35;;;;;;;;;;5055617;28;20050;-76
2023/08/21 03:39:37;;;;;;;4.25;3.65;;;;;;;;;;5055619;28;20025;-76
2023/08/21 03:42:07;;;;;;;7.10;3.50;;;;;;;;;;5054252;28;20049;-77
2023/08/21 03:44:33;;;;;;;7.13;3.97;;;;;;;;;;5055487;28;20365;-77
2023/08/21 03:46:59;;;;;;;6.85;3.85;;;;;;;;;;5055873;28;20501;-76
2023/08/21 03:49:25;;;;;;;6.35;3.63;;;;;;;;;;5055792;28;20033;-77
2023/08/21 03:51:51;;;;;;;11.98;4.93;;;;;;;;;;5055801;28;20056;-77
2023/08/21 03:54:17;;;;;;;7.38;3.95;;;;;;;;;;5055552;28;20021;-77
2023/08/21 03:56:43;;;;;;;7.80;4.55;;;;;;;;;;5054200;28;20048;-76
2023/08/21 03:59:09;;;;;;;8.40;4.45;;;;;;;;;;5055380;28;20033;-77
2023/08/21 04:01:35;;;;;;;11.15;4.45;;;;;;;;;;5055196;28;20028;-77
2023/08/21 04:04:01;;;;;;;6.10;3.78;;;;;;;;;;5053922;28;20111;-77
2023/08/21 04:06:27;;;;;;;8.35;4.13;;;;;;;;;;5055239;28;20031;-76
2023/08/21 04:08:53;;;;;;;8.82;4.00;;;;;;;;;;5055374;28;20338;-76
2023/08/21 04:11:19;;;;;;;7.35;3.97;;;;;;;;;;5055222;28;20048;-77
2023/08/21 04:13:45;;;;;;;10.18;4.70;;;;;;;;;;5055108;28;20021;-76
2023/08/21 04:16:12;;;;;;;10.35;4.70;;;;;;;;;;5054872;28;20028;-76
2023/08/21 04:18:38;;;;;;;8.93;4.68;;;;;;;;;;5054948;28;20056;-77
2023/08/21 04:21:04;;;;;;;11.77;4.82;;;;;;;;;;5054858;28;20028;-77
2023/08/21 04:23:30;;;;;;;10.63;5.40;;;;;;;;;;5055098;28;20113;-76
2023/08/21 04:26:03;;;;;;;8.52;5.40;;;;;;;;;;5054938;28;20032;-77
2023/08/21 04:28:30;;;;;;;10.30;5.38;;;;;;;;;;5054660;28;20119;-76
2023/08/21 04:30:57;;;;;;;9.45;4.65;;;;;;;;;;5054306;28;20367;-76
2023/08/21 04:33:25;;;;;;;14.00;6.10;;;;;;;;;;5054699;28;20021;-76
2023/08/21 04:35:51;;;;;;;12.40;5.50;;;;;;;;;;5054451;28;20115;-76
2023/08/21 04:38:17;;;;;;;12.43;5.63;;;;;;;;;;5054275;28;20060;-76
2023/08/21 04:40:43;;;;;;;9.10;5.50;;;;;;;;;;5053965;28;20147;-77
2023/08/21 04:43:09;;;;;;;14.27;5.97;;;;;;;;;;5054178;28;20544;-77
2023/08/21 04:45:37;;;;;;;9.57;5.90;;;;;;;;;;5054102;28;20107;-76
2023/08/21 04:48:03;;;;;;;11.05;5.88;;;;;;;;;;5054369;28;20082;-76
2023/08/21 04:50:29;;;;;;;9.68;5.68;;;;;;;;;;5054019;28;20040;-76
2023/08/21 04:52:55;;;;;;;11.20;5.70;;;;;;;;;;5054030;28;20025;-76
2023/08/21 04:55:22;;;;;;;12.43;5.68;;;;;;;;;;5054046;28;20079;-76
2023/08/21 04:57:48;;;;;;;10.50;5.78;;;;;;;;;;5054158;28;20025;-76
2023/08/21 05:00:15;;;;;;;8.18;5.53;;;;;;;;;;5053882;28;20017;-76
2023/08/21 05:02:41;;;;;;;7.93;5.40;;;;;;;;;;5054153;28;20025;-76
2023/08/21 05:05:08;;;;;;;8.82;5.45;;;;;;;;;;5054205;28;20032;-76
2023/08/21 05:07:35;;;;;;;11.00;5.55;;;;;;;;;;5053684;28;20111;-76
2023/08/21 05:10:01;;;;;;;11.50;6.20;;;;;;;;;;5053799;28;20021;-76
2023/08/21 05:12:27;;;;;;;12.60;6.28;;;;;;;;;;5053572;28;20059;-77
2023/08/21 05:14:54;;;;;;;12.63;6.18;;;;;;;;;;5053742;28;20017;-76
2023/08/21 05:17:20;;;;;;;12.23;5.95;;;;;;;;;;5053690;28;20032;-76
2023/08/21 05:19:46;;;;;;;17.88;6.20;;;;;;;;;;5053058;28;20029;-77
2023/08/21 05:22:12;;;;;;;11.43;5.85;;;;;;;;;;5053327;28;20457;-77
2023/08/21 05:24:38;;;;;;;14.93;5.93;;;;;;;;;;5053409;28;20040;-77
2023/08/21 05:27:04;;;;;;;11.63;6.15;;;;;;;;;;5053306;28;20104;-77
2023/08/21 05:29:30;;;;;;;9.65;5.72;;;;;;;;;;5034091;28;20025;-77
2023/08/21 05:31:56;;;;;;;9.18;5.65;;;;;;;;;;5047708;28;20036;-78
2023/08/21 05:34:22;;;;;;;14.60;5.78;;;;;;;;;;5053645;28;20548;-77
2023/08/21 05:36:48;;;;;;;15.27;6.25;;;;;;;;;;5054979;28;20021;-77
2023/08/21 05:39:14;;;;;;;14.35;7.68;;;;;;;;;;5055692;28;20524;-78
2023/08/21 05:41:40;;;;;;;12.55;8.20;;;;;;;;;;5056273;28;20084;-77
2023/08/21 05:44:06;;;;;;;12.93;7.40;;;;;;;;;;5055154;28;20025;-77
2023/08/21 05:46:32;;;;;;;14.95;6.38;;;;;;;;;;5053460;28;20452;-77
2023/08/21 05:48:58;;;;;;;9.98;6.13;;;;;;;;;;5053542;28;20029;-77
2023/08/21 05:51:24;;;;;;;9.35;5.88;;;;;;;;;;5054225;28;20113;-77
2023/08/21 05:53:50;;;;;;;8.15;5.38;;;;;;;;;;5053566;28;20018;-77
2023/08/21 05:56:17;;;;;;;9.00;4.43;;;;;;;;;;5053045;28;20563;-78
2023/08/21 05:58:43;;;;;;;7.05;3.70;;;;;;;;;;5053890;28;20537;-77
2023/08/21 06:01:09;;;;;;;8.02;3.63;;;;;;;;;;5054530;28;20108;-78
2023/08/21 06:03:35;;;;;;;7.22;3.53;;;;;;;;;;5054814;28;20031;-77
2023/08/21 06:06:01;;;;;;;4.78;3.60;;;;;;;;;;5056123;28;20028;-77
2023/08/21 06:08:27;;;;;;;7.13;3.53;;;;;;;;;;5057638;28;20033;-77
2023/08/21 06:10:53;;;;;;;6.25;3.65;;;;;;;;;;5058925;28;20033;-78
2023/08/21 06:13:19;;;;;;;4.70;3.38;;;;;;;;;;5056093;28;20437;-78
2023/08/21 06:15:45;;;;;;;4.97;3.40;;;;;;;;;;5057214;28;20107;-78
2023/08/21 06:18:12;;;;;;;7.78;3.65;;;;;;;;;;5055715;28;20032;-78
2023/08/21 06:20:38;;;;;;;6.65;3.33;;;;;;;;;;5055789;28;20029;-78
2023/08/21 06:23:04;;;;;;;7.05;4.00;;;;;;;;;;5055554;28;20025;-78
2023/08/21 06:25:30;;;;;;;6.95;3.55;;;;;;;;;;5055770;28;20037;-78
2023/08/21 06:27:56;;;;;;;7.20;3.97;;;;;;;;;;5056206;28;20021;-78
2023/08/21 06:30:22;;;;;;;7.32;3.67;;;;;;;;;;5054845;28;20025;-78
2023/08/21 06:32:48;;;;;;;7.47;3.67;;;;;;;;;;5054061;28;20033;-78
2023/08/21 06:35:15;;;;;;;8.65;4.38;;;;;;;;;;5053601;28;20048;-78
2023/08/21 06:37:42;;;;;;;8.75;4.32;;;;;;;;;;5053059;28;20025;-78
2023/08/21 06:40:08;;;;;;;8.30;4.25;;;;;;;;;;5051161;28;20361;-79
2023/08/21 06:42:34;;;;;;;8.13;4.22;;;;;;;;;;5053770;28;20040;-78
2023/08/21 06:45:00;;;;;;;9.20;4.57;;;;;;;;;;5052774;28;20025;-78
2023/08/21 06:47:26;;;;;;;6.75;3.90;;;;;;;;;;5055926;28;20036;-79
2023/08/21 06:49:52;;;;;;;8.23;4.00;;;;;;;;;;5055826;28;20104;-78
2023/08/21 06:52:18;;;;;;;7.63;3.58;;;;;;;;;;5056175;28;20609;-78
2023/08/21 06:54:44;;;;;;;8.10;4.00;;;;;;;;;;5054986;28;20021;-79
2023/08/21 06:57:10;;;;;;;7.25;3.72;;;;;;;;;;5057626;28;20026;-78
2023/08/21 06:59:36;;;;;;;5.75;2.95;;;;;;;;;;5058007;28;20025;-79
2023/08/21 07:02:06;;;;;;;6.28;3.20;;;;;;;;;;5058723;28;20045;-79
2023/08/21 07:04:33;;;;;;;7.55;3.55;;;;;;;;;;5058391;28;20024;-79
2023/08/21 07:06:59;;;;;;;5.28;3.70;;;;;;;;;;5059224;28;20021;-79
2023/08/21 07:09:25;;;;;;;6.15;3.17;;;;;;;;;;5059647;28;20029;-79
2023/08/21 07:11:51;;;;;;;5.85;3.50;;;;;;;;;;5059280;28;20040;-79
2023/08/21 07:14:18;;;;;;;6.40;3.20;;;;;;;;;;5059701;28;20071;-79
2023/08/21 07:16:44;;;;;;;5.60;2.88;;;;;;;;;;5057295;28;20120;-77
2023/08/21 07:19:10;;;;;;;5.05;3.25;;;;;;;;;;5057812;28;20017;-77
2023/08/21 07:21:38;;;;;;;5.63;3.20;;;;;;;;;;5058917;28;20494;-77
2023/08/21 07:24:04;;;;;;;7.10;3.35;;;;;;;;;;5060464;28;20018;-77
2023/08/21 07:26:30;;;;;;;5.00;3.40;;;;;;;;;;5060224;28;20021;-77
2023/08/21 07:28:56;;;;;;;6.45;3.35;;;;;;;;;;5060714;28;20044;-78
2023/08/21 07:31:23;;;;;;;6.28;2.92;;;;;;;;;;5062371;28;20029;-78
2023/08/21 07:33:49;;;;;;;6.82;3.10;;;;;;;;;;5062078;28;20079;-78
2023/08/21 07:36:17;;;;;;;4.03;2.53;;;;;;;;;;5062967;28;20077;-78
2023/08/21 07:38:46;;;;;;;5.38;2.92;;;;;;;;;;5061254;28;20071;-78
2023/08/21 07:41:12;;;;;;;5.40;2.70;;;;;;;;;;5066035;28;20048;-78
2023/08/21 07:43:42;;;;;;;7.53;2.97;;;;;;;;;;5063101;28;20078;-78
2023/08/21 07:46:15;;;;;;;5.43;2.70;;;;;;;;;;5061273;28;20132;-78
2023/08/21 07:48:41;;;;;;;4.95;2.72;;;;;;;;;;5067063;28;20009;-78
2023/08/21 07:51:07;;;;;;;6.03;2.55;;;;;;;;;;5067127;28;20041;-78
2023/08/21 07:53:34;;;;;;;5.03;1.90;;;;;;;;;;5060147;28;20104;-78
2023/08/21 07:56:03;;;;;;;6.10;2.17;;;;;;;;;;5062064;28;20025;-79
2023/08/21 07:58:29;;;;;;;;;;;;;;;;;;5056945;28;20021;-80
2023/08/21 08:00:55;;;;;;;7.63;2.03;;;;;;;;;;5054694;28;19905;-79
2023/08/21 08:03:21;;;;;;;6.60;2.45;;;;;;;;;;5059007;28;20021;-79
2023/08/21 08:05:47;;;;;;;5.68;2.10;;;;;;;;;;5058036;28;20029;-79
2023/08/21 08:08:13;;;;;;;6.93;2.30;;;;;;;;;;5057931;28;20029;-79
2023/08/21 08:10:40;;;;;;;8.48;2.50;;;;;;;;;;5059724;28;20499;-79
2023/08/21 08:13:06;;;;;;;3.10;2.15;;;;;;;;;;5060544;28;20100;-79
2023/08/21 08:15:33;;;;;;;5.72;2.60;;;;;;;;;;5060916;28;20044;-79
2023/08/21 08:17:59;;;;;;;5.40;2.35;;;;;;;;;;5061601;28;20021;-79
2023/08/21 08:20:25;;;;;;;4.45;2.20;;;;;;;;;;5061457;28;20025;-79
2023/08/21 08:22:51;;;;;;;5.75;1.98;;;;;;;;;;5062429;28;20029;-79
2023/08/21 08:25:17;;;;;;;6.32;2.25;;;;;;;;;;5062024;28;20052;-79
2023/08/21 08:27:44;;;;;;;4.47;1.85;;;;;;;;;;5065229;28;20029;-79
2023/08/21 08:30:10;;;;;;;5.70;1.73;;;;;;;;;;5069638;28;20049;-80
2023/08/21 08:32:36;;;;;;;6.32;2.00;;;;;;;;;;5059966;28;20033;-79
2023/08/21 08:35:11;;;;;;;5.22;2.22;;;;;;;;;;5064210;28;20025;-79
2023/08/21 08:37:37;;;;;;;5.50;1.65;;;;;;;;;;5063966;28;20021;-79
2023/08/21 08:40:04;;;;;;;5.32;1.70;;;;;;;;;;5060777;28;20021;-79
2023/08/21 08:42:30;;;;;;;4.65;1.63;;;;;;;;;;5058689;28;20452;-79
2023/08/21 08:44:57;;;;;;;6.05;1.70;;;;;;;;;;5038771;28;20100;-80
2023/08/21 08:47:24;;;;;;;5.28;1.80;;;;;;;;;;5035368;28;20095;-80
2023/08/21 08:49:51;;;;;;;3.97;1.55;;;;;;;;;;5034890;28;20099;-80
2023/08/21 08:52:18;;;;;;;3.90;1.40;;;;;;;;;;5034551;28;20025;-80
2023/08/21 08:54:45;;;;;;;4.00;1.50;;;;;;;;;;5034764;28;20017;-80
2023/08/21 08:57:11;;;;;;;4.70;1.33;;;;;;;;;;5034669;28;20527;-80
2023/08/21 08:59:37;;;;;;;4.90;1.70;;;;;;;;;;5034865;28;20022;-80
2023/08/21 09:02:03;;;;;;;5.28;1.60;;;;;;;;;;5040030;28;20532;-80
2023/08/21 09:04:29;;;;;;;3.85;1.40;;;;;;;;;;5034685;28;20091;-80
2023/08/21 09:07:06;;;;;;;4.95;1.70;;;;;;;;;;5034549;28;20460;-80
2023/08/21 09:09:38;;;;;;;4.60;1.42;;;;;;;;;;5036870;28;20068;-80
2023/08/21 09:12:07;;;;;;;3.70;1.58;;;;;;;;;;5049203;28;20125;-80
2023/08/21 09:14:34;;;;;;;4.85;1.58;;;;;;;;;;5054168;28;20053;-80
2023/08/21 09:17:03;;;;;;;3.95;1.60;;;;;;;;;;5054079;28;20025;-79
2023/08/21 09:19:29;;;;;;;4.28;1.33;;;;;;;;;;5056883;28;20074;-80
2023/08/21 09:21:55;;;;;;;4.78;1.33;;;;;;;;;;5060932;28;20029;-80
2023/08/21 09:24:23;;;;;;;4.65;1.38;;;;;;;;;;5056735;28;20675;-80
2023/08/21 09:26:50;;;;;;;4.43;1.48;;;;;;;;;;5054392;28;20028;-79
2023/08/21 09:29:16;;;;;;;3.10;1.20;;;;;;;;;;5051934;28;20116;-78
2023/08/21 09:31:45;;;;;;;4.82;1.48;;;;;;;;;;5053371;28;20501;-78
2023/08/21 09:34:11;;;;;;;4.60;1.60;;;;;;;;;;5053605;28;20017;-78
2023/08/21 09:36:41;;;;;;;4.80;1.75;;;;;;;;;;5054054;28;20025;-78
2023/08/21 09:39:15;;;;;;;4.40;1.60;;;;;;;;;;5054231;28;20171;-80
2023/08/21 09:41:41;;;;;;;4.85;1.73;;;;;;;;;;5054202;28;20163;-80
2023/08/21 09:44:08;;;;;;;4.55;1.48;;;;;;;;;;5054699;28;20053;-80
2023/08/21 09:46:34;;;;;;;4.03;1.50;;;;;;;;;;5054392;28;20036;-80
2023/08/21 09:49:02;;;;;;;3.70;1.80;;;;;;;;;;5054726;28;20025;-80
2023/08/21 09:51:28;;;;;;;;;;;;;;;;;;5056953;28;20028;-80
2023/08/21 09:53:55;;;;;;;4.88;1.42;;;;;;;;;;5041559;28;19905;-81
2023/08/21 09:56:21;;;;;;;3.40;1.30;;;;;;;;;;5034766;28;20028;-80
2023/08/21 09:58:49;;;;;;;4.85;1.33;;;;;;;;;;5048844;28;20427;-80
2023/08/21 10:01:17;;;;;;;5.60;1.52;;;;;;;;;;5056890;28;20103;-80
2023/08/21 10:03:47;;;;;;;2.03;1.00;;;;;;;;;;5057226;28;20056;-79
2023/08/21 10:06:16;;;;;;;3.03;1.20;;;;;;;;;;5061503;28;20112;-79
2023/08/21 10:08:42;;;;;;;3.75;1.00;;;;;;;;;;5061003;28;20029;-80
2023/08/21 10:11:10;;;;;;;3.17;1.30;;;;;;;;;;5059629;28;20280;-81
2023/08/21 10:13:38;;;;;;;3.58;1.50;;;;;;;;;;5059135;28;20025;-81
2023/08/21 10:16:05;;;;;;;3.73;1.60;;;;;;;;;;5056465;28;20028;-81
2023/08/21 10:18:36;;;;;;;4.30;1.60;;;;;;;;;;5055335;28;20028;-81
2023/08/21 10:21:20;;;;;;;5.05;1.90;;;;;;;;;;5059118;28;20052;-80
2023/08/21 10:23:47;;;;;;;10.63;2.05;;;;;;;;;;5040744;28;20513;-81
2023/08/21 10:26:13;;;;;;;8.40;2.10;;;;;;;;;;5047139;28;20025;-81
2023/08/21 10:28:43;;;;;;;4.60;2.00;;;;;;;;;;5056620;28;20107;-81
2023/08/21 10:31:29;;;;;;;4.32;1.70;;;;;;;;;;5055715;28;20115;-81
2023/08/21 10:33:56;;;;;;;5.70;1.90;;;;;;;;;;5026832;28;20101;-80
2023/08/21 10:36:41;;;;;;;6.78;2.00;;;;;;;;;;5041245;28;20022;-81
2023/08/21 10:39:14;;;;;;;4.40;1.83;;;;;;;;;;5038520;28;20077;-81
2023/08/21 10:41:41;;;;;;;4.18;1.67;;;;;;;;;;5049634;28;20411;-81
2023/08/21 10:44:08;;;;;;;5.63;1.58;;;;;;;;;;5058656;28;20094;-81
2023/08/21 10:46:53;;;;;;;7.38;2.00;;;;;;;;;;5059139;28;20021;-81
2023/08/21 10:49:19;;;;;;;6.20;2.35;;;;;;;;;;5059218;28;20024;-81
2023/08/21 10:51:45;;;;;;;5.70;2.40;;;;;;;;;;5058946;28;20112;-81
2023/08/21 10:54:16;;;;;;;6.95;2.50;;;;;;;;;;5059195;28;20029;-81
2023/08/21 10:56:42;;;;;;;6.28;3.00;;;;;;;;;;5057583;28;20083;-82
2023/08/21 10:59:08;;;;;;;5.93;2.80;;;;;;;;;;5058736;28;20025;-80
2023/08/21 11:01:44;;;;;;;5.75;3.92;;;;;;;;;;5058896;28;20070;-82
2023/08/21 11:04:10;;;;;;;5.97;3.42;;;;;;;;;;5054830;28;20687;-85
2023/08/21 11:06:36;;;;;;;7.18;4.20;;;;;;;;;;5057099;28;20033;-85
2023/08/21 11:09:04;;;;;;;10.95;4.10;;;;;;;;;;5057152;28;20029;-85
2023/08/21 11:11:30;;;;;;;7.07;4.05;;;;;;;;;;5057676;28;20036;-85
2023/08/21 11:13:56;;;;;;;9.00;4.97;;;;;;;;;;5058272;28;20456;-85
2023/08/21 11:16:22;;;;;;;9.27;4.70;;;;;;;;;;5061950;28;20025;-85
2023/08/21 11:18:48;;;;;;;9.73;4.70;;;;;;;;;;5062536;28;20040;-85
2023/08/21 11:21:14;;;;;;;9.65;5.50;;;;;;;;;;5066062;28;20029;-85
2023/08/21 11:23:41;;;;;;;8.35;4.60;;;;;;;;;;5067240;28;20049;-85
2023/08/21 11:26:10;;;;;;;9.80;4.53;;;;;;;;;;5061974;28;20020;-85
2023/08/21 11:28:36;;;;;;;5.57;3.72;;;;;;;;;;5077244;28;20031;-85
2023/08/21 11:31:02;;;;;;;8.13;4.88;;;;;;;;;;5069301;28;20025;-85
2023/08/21 11:33:54;;;;;;;9.38;3.88;;;;;;;;;;5057052;28;20057;-85
2023/08/21 11:42:33;;;;;;;6.70;3.58;;;;;;;;;;5051519;28;20080;-85
2023/08/21 11:45:00;;;;;;;7.57;3.60;;;;;;;;;;5055516;28;20070;-85
2023/08/21 11:47:31;;;;;;;8.88;4.65;;;;;;;;;;5055264;28;20025;-85
2023/08/21 11:49:57;;;;;;;7.22;3.80;;;;;;;;;;5056832;28;20108;-85
2023/08/21 11:52:27;;;;;;;10.32;4.63;;;;;;;;;;5056787;28;20096;-85
2023/08/21 11:54:54;;;;;;;7.75;6.30;;;;;;;;;;5055150;28;20025;-86
2023/08/21 11:57:21;;;;;;;9.48;5.90;;;;;;;;;;5056389;28;20057;-86
2023/08/21 12:00:11;;;;;;;8.75;5.88;;;;;;;;;;5055291;28;20024;-85
2023/08/21 12:02:37;;;;;;;12.32;5.88;;;;;;;;;;5055068;28;20033;-85
2023/08/21 12:05:06;;;;;;;9.10;5.82;;;;;;;;;;5056189;28;20029;-85
2023/08/21 12:07:33;;;;;;;9.88;5.13;;;;;;;;;;5056340;28;20021;-84
2023/08/21 12:09:59;;;;;;;10.38;5.30;;;;;;;;;;5036177;28;20040;-84
2023/08/21 12:12:25;;;;;;;11.15;5.10;;;;;;;;;;5036003;28;20075;-84
2023/08/21 12:14:51;;;;;;;9.57;5.50;;;;;;;;;;5036073;28;20021;-84
2023/08/21 12:20:27;;;;;;;9.85;4.95;;;;;;;;;;5036483;28;20032;-85
2023/08/21 12:22:53;;;;;;;9.07;4.63;;;;;;;;;;5053298;28;20507;-84
2023/08/21 12:25:19;;;;;;;8.32;5.07;;;;;;;;;;5056795;28;20163;-84
2023/08/21 12:27:45;;;;;;;6.97;3.83;;;;;;;;;;5055551;28;20468;-84
2023/08/21 12:30:11;;;;;;;8.40;3.80;;;;;;;;;;5056163;28;20057;-84
2023/08/21 12:32:37;;;;;;;10.38;3.88;;;;;;;;;;5056671;28;20033;-84
2023/08/21 12:35:04;;;;;;;4.60;1.98;;;;;;;;;;5056757;28;20033;-84
2023/08/21 12:37:30;;;;;;;6.05;2.28;;;;;;;;;;5055468;28;20056;-84
2023/08/21 12:39:56;;;;;;;5.63;1.98;;;;;;;;;;5057101;28;20029;-84
2023/08/21 12:42:22;;;;;;;5.05;2.53;;;;;;;;;;5055581;28;20048;-85
2023/08/21 12:44:48;;;;;;;5.43;2.30;;;;;;;;;;5054281;28;20079;-85
2023/08/21 12:47:14;;;;;;;5.53;2.00;;;;;;;;;;5054367;28;20025;-85
2023/08/21 12:49:40;;;;;;;8.75;1.85;;;;;;;;;;5055285;28;20078;-85
2023/08/21 12:52:06;;;;;;;5.65;2.30;;;;;;;;;;5055489;28;20033;-84
2023/08/21 12:54:32;;;;;;;5.50;1.77;;;;;;;;;;5056075;28;20420;-84
2023/08/21 12:56:58;;;;;;;4.30;1.60;;;;;;;;;;5054105;28;20506;-84
2023/08/21 12:59:24;;;;;;;3.55;1.40;;;;;;;;;;5053995;28;20107;-85
2023/08/21 13:01:50;;;;;;;3.17;1.17;;;;;;;;;;5055130;28;20029;-85
2023/08/21 13:07:17;;;;;;;4.00;1.25;;;;;;;;;;5055629;28;20033;-85
2023/08/21 13:09:43;;;;;;;4.57;1.50;;;;;;;;;;5053842;28;20032;-85
2023/08/21 13:12:09;;;;;;;4.53;1.30;;;;;;;;;;5054899;28;20150;-85
2023/08/21 13:14:35;;;;;;;3.60;1.20;;;;;;;;;;5054895;28;20369;-85
2023/08/21 13:17:01;;;;;;;3.97;1.20;;;;;;;;;;5055029;28;20025;-85
2023/08/21 13:19:27;;;;;;;5.95;1.25;;;;;;;;;;5055015;28;20519;-85
2023/08/21 13:21:54;;;;;;;2.75;1.23;;;;;;;;;;5054862;28;20028;-85
2023/08/21 13:24:21;;;;;;;3.20;1.48;;;;;;;;;;5055225;28;20147;-86
2023/08/21 13:26:47;;;;;;;3.13;1.00;;;;;;;;;;5054712;28;20467;-85
2023/08/21 13:29:13;;;;;;;3.65;1.10;;;;;;;;;;5054378;28;20104;-85
2023/08/21 13:31:39;;;;;;;3.03;1.10;;;;;;;;;;5054888;28;20037;-85
2023/08/21 13:34:05;;;;;;;4.28;1.08;;;;;;;;;;5053306;28;20033;-85
2023/08/21 13:36:32;;;;;;;3.33;1.38;;;;;;;;;;5054289;28;20611;-85
2023/08/21 13:38:58;;;;;;;1.80;0.98;;;;;;;;;;5053207;28;20025;-85
2023/08/21 13:41:24;;;;;;;2.78;1.20;;;;;;;;;;5051805;28;20049;-85
2023/08/21 13:43:50;;;;;;;4.40;1.27;;;;;;;;;;5054372;28;20025;-85
2023/08/21 13:46:16;;;;;;;2.28;1.20;;;;;;;;;;5053137;28;20029;-85
2023/08/21 14:01:12;;;;;;;3.63;1.35;;;;;;;;;;5054196;28;20494;-85
2023/08/21 14:03:38;;;;;;;2.72;1.30;;;;;;;;;;5054109;28;20032;-85
2023/08/21 14:06:04;;;;;;;3.80;1.33;;;;;;;;;;5053988;28;20129;-85
2023/08/21 14:08:30;;;;;;;4.43;1.40;;;;;;;;;;5052859;28;20101;-85
2023/08/21 14:10:56;;;;;;;4.80;1.70;;;;;;;;;;5056994;28;20025;-85
2023/08/21 14:13:23;;;;;;;4.45;1.50;;;;;;;;;;5075357;28;20457;-85
2023/08/21 14:15:49;;;;;;;2.88;1.40;;;;;;;;;;5058377;28;20680;-85
2023/08/21 14:18:15;;;;;;;6.03;1.65;;;;;;;;;;5061886;28;20075;-85
2023/08/21 14:20:41;;;;;;;5.65;1.73;;;;;;;;;;5073590;28;20021;-85
2023/08/21 14:23:07;;;;;;;5.43;2.20;;;;;;;;;;5054606;28;20053;-85
2023/08/21 14:25:33;;;;;;;7.25;1.90;;;;;;;;;;5053765;28;20104;-83
2023/08/21 14:27:59;;;;;;;3.22;1.67;;;;;;;;;;5054422;28;20028;-83
2023/08/21 14:30:42;;;;;;;4.47;2.00;;;;;;;;;;5057351;28;20025;-84
2023/08/21 14:33:08;;;;;;;3.95;1.70;;;;;;;;;;5054822;28;20471;-84
2023/08/21 14:35:34;;;;;;;3.75;1.75;;;;;;;;;;5052569;28;20095;-84
2023/08/21 14:38:00;;;;;;;3.97;1.33;;;;;;;;;;5054403;28;20104;-84
2023/08/21 14:40:26;;;;;;;2.75;1.50;;;;;;;;;;5057781;28;20025;-84
2023/08/21 14:42:53;;;;;;;4.75;1.60;;;;;;;;;;5060257;28;20124;-84
2023/08/21 14:45:19;;;;;;;5.43;1.60;;;;;;;;;;5060899;28;20029;-84
2023/08/21 14:47:45;;;;;;;3.67;1.70;;;;;;;;;;5060617;28;20021;-84
2023/08/21 14:50:11;;;;;;;4.28;1.65;;;;;;;;;;5060980;28;20021;-84
2023/08/21 14:52:39;;;;;;;4.60;1.70;;;;;;;;;;5058695;28;20036;-84
2023/08/21 14:55:05;;;;;;;4.18;1.60;;;;;;;;;;5061278;28;20039;-84
2023/08/21 14:57:31;;;;;;;2.60;1.20;;;;;;;;;;5060537;28;20021;-84
2023/08/21 14:59:58;;;;;;;2.50;1.17;;;;;;;;;;5060561;28;20031;-82
2023/08/21 15:02:24;;;;;;;3.55;1.70;;;;;;;;;;5060565;28;20033;-84
2023/08/21 15:04:50;;;;;;;3.63;1.20;;;;;;;;;;5060974;28;20033;-86